Time;durP1;ratioP1;P1;durP2;ratioP2;P2;SDS_P1;SDS_P2;PMS_P1;PMS_P2;Temp;Humidity;BMP_temperature;BMP_pressure;BME280_temperature;BME280_humidity;BME280_pressure;Samples;Min_cycle;Max_cycle;Signal;HPM_P1;HPM_P2
2023/05/04 00:02:23;;;;;;;;;;;17.00;56.90;;;17.17;40.21;99151.13;4907825;28;124560;-82
2023/05/04 00:04:57;;;;;;;;;;;17.00;57.10;;;17.12;40.30;99142.97;4897989;28;120361;-80
2023/05/04 00:07:23;;;;;;;;;;;17.00;57.30;;;17.08;40.24;99150.38;4903012;28;120140;-81
2023/05/04 00:09:52;;;;;;;;;;;16.90;57.40;;;17.05;40.43;99142.72;4909216;28;123438;-79
2023/05/04 00:12:18;;;;;;;;;;;16.90;57.50;;;17.01;40.42;99136.22;4907615;28;124596;-79
2023/05/04 00:14:52;;;;;;;;;;;16.80;57.60;;;16.95;40.82;99138.41;4892803;28;119280;-78
2023/05/04 00:17:18;;;;;;;;;;;16.80;57.80;;;16.91;40.84;99142.25;4911270;28;117773;-81
2023/05/04 00:19:47;;;;;;;;;;;16.70;58.00;;;16.88;41.42;99142.94;4909489;28;123165;-81
2023/05/04 00:22:19;;;;;;;;;;;16.70;58.20;;;16.84;41.27;99141.97;4909013;28;124456;-78
2023/05/04 00:24:45;;;;;;;;;;;16.70;58.40;;;16.78;41.26;99133.81;4908493;28;119078;-81
2023/05/04 00:27:11;;;;;;;;;;;16.60;58.50;;;16.74;41.33;99130.09;4910730;28;117966;-79
2023/05/04 00:29:41;;;;;;;;;;;16.60;58.70;;;16.71;41.61;99133.56;4908096;28;124421;-78
2023/05/04 00:32:08;;;;;;;;;;;16.50;58.90;;;16.69;41.59;99130.31;4903953;28;123740;-76
2023/05/04 00:34:35;;;;;;;;;;;16.50;59.10;;;16.65;41.58;99128.53;4903851;28;119923;-76
2023/05/04 00:37:10;;;;;;;;;;;16.40;59.20;;;16.62;41.97;99130.03;4905242;28;118592;-77
2023/05/04 00:39:40;;;;;;;;;;;16.50;59.50;;;16.59;42.22;99119.56;4907778;28;124379;-76
2023/05/04 00:42:07;;;;;;;;;;;16.40;59.50;;;16.56;42.02;99112.72;4906786;28;123797;-76
2023/05/04 00:44:40;;;;;;;;;;;16.30;59.60;;;16.54;42.12;99117.00;4906766;28;119266;-80
2023/05/04 00:47:07;;;;;;;;;;;18.10;61.40;;;16.49;42.11;99114.44;4911259;28;118581;-80
2023/05/04 00:49:34;;;;;;;;;;;16.30;59.90;;;16.47;42.33;99117.56;4900924;28;124285;-81
2023/05/04 00:52:05;;;;;;;;;;;16.30;60.00;;;16.43;42.32;99110.25;4900123;28;125359;-80
2023/05/04 00:55:07;;;;;;;;;;;16.20;60.00;;;16.39;42.34;99106.50;4900610;28;120262;-78
2023/05/04 00:57:45;;;;;;;;;;;16.20;60.10;;;16.32;42.43;99113.44;4907907;28;119726;-81
2023/05/04 01:00:17;;;;;;;;;;;16.60;60.70;;;16.30;42.45;99112.16;4909711;28;124036;-76
2023/05/04 01:02:45;;;;;;;;;;;16.10;60.50;;;16.27;42.63;99113.66;4905786;28;124028;-75
2023/05/04 01:05:12;;;;;;;;;;;16.10;60.60;;;16.25;42.69;99110.38;4908848;28;119822;-75
2023/05/04 01:07:57;;;;;;;;;;;16.10;60.80;;;16.21;42.69;99105.88;4907734;28;117834;-75
2023/05/04 01:10:34;;;;;;;;;;;16.00;60.80;;;16.18;42.81;99109.34;4908620;28;124255;-76
2023/05/04 01:13:13;;;;;;;;;;;16.00;60.90;;;16.16;43.28;99112.47;4902154;28;124019;-77
2023/05/04 01:15:44;;;;;;;;;;;15.90;61.10;;;16.13;43.02;99118.72;4906653;28;118245;-74
2023/05/04 01:18:10;;;;;;;;;;;16.00;61.30;;;16.11;42.93;99112.66;4910613;28;117847;-74
2023/05/04 01:20:36;;;;;;;;;;;15.90;61.40;;;16.08;43.27;99116.94;4902403;28;124951;-74
2023/05/04 01:23:05;;;;;;;;;;;15.90;61.50;;;16.06;43.31;99118.44;4906588;28;123734;-75
2023/05/04 01:25:59;;;;;;;;;;;15.90;61.70;;;16.02;43.34;99120.31;4903847;28;120093;-74
2023/05/04 01:28:44;;;;;;;;;;;15.80;61.80;;;15.98;43.36;99122.13;4904097;28;120193;-75
2023/05/04 01:31:12;;;;;;;;;;;15.80;61.90;;;15.94;43.67;99119.22;4906842;28;124265;-77
2023/05/04 01:33:42;;;;;;;;;;;15.70;62.00;;;15.90;43.76;99113.50;4905807;28;125079;-77
2023/05/04 01:36:08;;;;;;;;;;;15.70;62.20;;;15.89;43.80;99108.28;4907111;28;119624;-77
2023/05/04 01:38:35;;;;;;;;;;;15.70;62.40;;;15.87;43.76;99111.38;4907286;28;118820;-73
2023/05/04 01:41:01;;;;;;;;;;;15.60;62.40;;;15.83;43.96;99116.03;4905199;28;124394;-75
2023/05/04 01:43:29;;;;;;;;;;;15.60;62.60;;;15.82;44.05;99108.00;4906253;28;124246;-76
2023/05/04 01:45:56;;;;;;;;;;;15.60;62.80;;;15.78;43.97;99102.28;4904994;28;120386;-77
2023/05/04 01:48:22;;;;;;;;;;;15.50;62.80;;;15.75;44.01;99102.97;4907648;28;120033;-76
2023/05/04 01:50:48;;;;;;;;;;;15.50;62.90;;;15.73;44.03;99101.69;4908846;28;124938;-77
2023/05/04 01:53:17;;;;;;;;;;;15.50;63.10;;;15.70;44.33;99114.31;4906083;28;124705;-78
2023/05/04 01:55:44;;;;;;;;;;;15.50;63.20;;;15.66;44.40;99116.94;4894160;28;119440;-76
2023/05/04 01:58:12;;;;;;;;;;;15.40;63.30;;;15.64;44.34;99113.66;4907422;28;118640;-79
2023/05/04 02:00:41;;;;;;;;;;;15.40;63.50;;;15.61;44.37;99113.53;4907254;28;123973;-76
2023/05/04 02:03:10;;;;;;;;;;;15.40;63.70;;;15.59;44.68;99115.84;4908325;28;124376;-78
2023/05/04 02:05:36;;;;;;;;;;;15.30;63.70;;;15.57;44.85;99109.78;4910345;28;119563;-76
2023/05/04 02:08:09;;;;;;;;;;;15.40;64.10;;;15.56;44.70;99110.94;4903081;28;119031;-77
2023/05/04 02:10:43;;;;;;;;;;;15.30;64.10;;;15.55;44.62;99114.88;4904933;28;124397;-75
2023/05/04 02:13:09;;;;;;;;;;;15.30;64.30;;;15.52;45.05;99109.97;4909509;28;124077;-76
2023/05/04 02:15:35;;;;;;;;;;;15.30;64.40;;;15.50;45.30;99109.50;4914330;28;119360;-75
2023/05/04 02:18:11;;;;;;;;;;;15.20;64.50;;;15.49;45.11;99116.22;4900520;28;118109;-76
2023/05/04 02:20:37;;;;;;;;;;;15.20;64.70;;;15.48;45.34;99103.47;4900349;28;124382;-76
2023/05/04 02:23:05;;;;;;;;;;;15.20;64.90;;;15.46;45.19;99101.81;4907121;28;124002;-75
2023/05/04 02:25:34;;;;;;;;;;;15.20;65.00;;;15.44;45.42;99109.69;4892284;28;118596;-80
2023/05/04 02:28:00;;;;;;;;;;;15.20;65.20;;;15.41;45.22;99099.22;4894314;28;117945;-76
2023/05/04 02:30:29;;;;;;;;;;;15.10;65.20;;;15.41;45.52;99099.22;4908506;28;123985;-77
2023/05/04 02:32:55;;;;;;;;;;;15.10;65.30;;;15.39;45.41;99101.56;4900120;28;124636;-80
2023/05/04 02:35:22;;;;;;;;;;;15.10;65.50;;;15.39;45.40;99100.72;4907896;28;120504;-76
2023/05/04 02:37:53;;;;;;;;;;;15.10;65.60;;;15.35;45.68;99102.56;4902651;28;119581;-80
2023/05/04 02:40:19;;;;;;;;;;;15.10;65.70;;;15.31;45.72;99102.41;4903863;28;124150;-79
2023/05/04 02:42:45;;;;;;;;;;;15.10;65.90;;;15.28;45.71;99094.72;4905589;28;123619;-77
2023/05/04 02:45:12;;;;;;;;;;;15.00;65.90;;;15.27;46.16;99107.03;4910554;28;119498;-76
2023/05/04 02:47:41;;;;;;;;;;;15.00;66.10;;;15.24;45.75;99102.13;4906112;28;118800;-79
2023/05/04 02:50:10;;;;;;;;;;;15.00;66.10;;;15.23;45.88;99094.91;4901192;28;123716;-77
2023/05/04 02:52:41;;;;;;;;;;;14.90;66.20;;;15.20;46.02;99092.81;4908861;28;122636;-79
2023/05/04 02:55:08;;;;;;;;;;;14.90;66.30;;;15.18;46.20;99092.34;4900281;28;119980;-79
2023/05/04 02:57:36;;;;;;;;;;;14.90;66.50;;;15.15;46.23;99096.63;4908729;28;118567;-77
2023/05/04 03:00:06;;;;;;;;;;;14.90;66.70;;;15.13;46.17;99101.69;4907191;28;124833;-78
2023/05/04 03:02:32;;;;;;;;;;;14.90;66.90;;;15.10;46.21;99107.94;4908865;28;124144;-76
2023/05/04 03:05:01;;;;;;;;;;;14.80;66.90;;;15.07;46.42;99099.44;4905385;28;121890;-76
2023/05/04 03:07:29;;;;;;;;;;;14.80;67.10;;;15.02;46.44;99103.22;4909710;28;118331;-77
2023/05/04 03:09:56;;;;;;;;;;;14.80;67.20;;;15.00;46.42;99094.41;4889494;28;123558;-77
2023/05/04 03:12:23;;;;;;;;;;;14.70;67.40;;;14.99;46.44;99099.16;4900849;28;123915;-79
2023/05/04 03:14:53;;;;;;;;;;;14.70;67.50;;;14.98;46.53;99102.25;4898236;28;120058;-78
2023/05/04 03:17:19;;;;;;;;;;;14.70;67.50;;;14.95;46.59;99112.09;4891579;28;117985;-79
2023/05/04 03:19:53;;;;;;;;;;;14.70;67.70;;;14.92;46.74;99106.38;4922791;28;123132;-76
2023/05/04 03:22:19;;;;;;;;;;;14.70;67.80;;;14.91;46.64;99107.50;4889316;28;124033;-77
2023/05/04 03:24:51;;;;;;;;;;;14.70;68.00;;;14.88;46.75;99111.78;4906835;28;121101;-76
2023/05/04 03:27:17;;;;;;;;;;;14.60;68.70;;;14.85;47.02;99112.44;4899846;28;118944;-79
2023/05/04 03:29:52;;;;;;;;;;;14.60;68.20;;;14.80;47.05;99102.34;4896178;28;124174;-77
2023/05/04 03:32:21;;;;;;;;;;;14.50;68.20;;;14.77;47.25;99107.75;4909327;28;122883;-80
2023/05/04 03:34:49;;;;;;;;;;;14.50;68.40;;;14.73;47.20;99107.59;4911718;28;118930;-80
2023/05/04 03:37:15;;;;;;;;;;;14.50;68.60;;;14.69;47.41;99100.25;4912355;28;118756;-77
2023/05/04 03:39:41;;;;;;;;;;;14.50;68.80;;;14.66;47.49;99100.91;4907948;28;124026;-82
2023/05/04 03:42:13;;;;;;;;;;;14.40;68.90;;;14.63;47.48;99110.72;4910806;28;124536;-79
2023/05/04 03:44:39;;;;;;;;;;;14.40;69.00;;;14.61;47.57;99110.25;4898109;28;118662;-77
2023/05/04 03:47:06;;;;;;;;;;;14.40;69.30;;;14.58;47.70;99106.16;4901717;28;118066;-77
2023/05/04 03:49:37;;;;;;;;;;;14.30;69.30;;;14.57;47.71;99104.53;4890741;28;123735;-79
2023/05/04 03:52:03;;;;;;;;;;;14.30;69.50;;;14.54;47.79;99099.63;4886613;28;122779;-79
2023/05/04 03:54:32;;;;;;;;;;;14.30;69.60;;;14.51;48.00;99100.28;4892596;28;118831;-79
2023/05/04 03:57:03;;;;;;;;;;;14.30;69.80;;;14.50;48.10;99097.81;4895359;28;118716;-78
2023/05/04 03:59:30;;;;;;;;;;;14.20;69.90;;;14.48;48.14;99100.94;4908519;28;123974;-75
2023/05/04 04:02:03;;;;;;;;;;;14.20;70.10;;;14.47;48.15;99098.47;4907471;28;124284;-79
2023/05/04 04:04:30;;;;;;;;;;;14.20;70.20;;;14.44;48.08;99102.75;4902052;28;119427;-77
2023/05/04 04:06:56;;;;;;;;;;;14.20;70.40;;;14.44;48.24;99099.16;4891932;28;118130;-78
2023/05/04 04:09:28;;;;;;;;;;;15.10;71.40;;;14.43;48.29;99098.34;4908198;28;124723;-78
2023/05/04 04:11:54;;;;;;;;;;;14.10;70.60;;;14.41;48.32;99097.03;4904561;28;123929;-79
2023/05/04 04:14:20;;;;;;;;;;;14.10;71.50;;;14.39;48.46;99100.13;4908303;28;120341;-81
2023/05/04 04:16:49;;;;;;;;;;;14.10;71.00;;;14.37;48.70;99096.84;4909070;28;120962;-78
2023/05/04 04:19:15;;;;;;;;;;;14.10;71.10;;;14.35;48.75;99093.63;4904162;28;124391;-82
2023/05/04 04:21:42;;;;;;;;;;;14.10;71.30;;;14.34;48.56;99089.19;4908064;28;123922;-79
2023/05/04 04:24:08;;;;;;;;;;;14.10;71.50;;;14.34;48.78;99089.19;4906879;28;119477;-79
2023/05/04 04:26:37;;;;;;;;;;;14.10;71.70;;;14.35;48.76;99096.41;4906516;28;118947;-79
2023/05/04 04:29:06;;;;;;;;;;;14.00;71.70;;;14.34;48.79;99091.97;4888394;28;125439;-76
2023/05/04 04:31:32;;;;;;;;;;;14.00;71.90;;;14.34;48.89;99098.34;4906486;28;124409;-78
2023/05/04 04:34:01;;;;;;;;;;;14.00;72.10;;;14.35;48.95;99086.09;4905798;28;119377;-78
2023/05/04 04:36:28;;;;;;;;;;;14.00;72.20;;;14.35;49.03;99090.84;4906908;28;119771;-76
2023/05/04 04:38:54;;;;;;;;;;;14.00;72.30;;;14.35;48.97;99096.41;4904485;28;124368;-77
2023/05/04 04:41:27;;;;;;;;;;;14.00;72.50;;;14.34;49.04;99083.63;4903574;28;123890;-75
2023/05/04 04:43:53;;;;;;;;;;;14.00;72.60;;;14.34;49.17;99087.22;4907077;28;119453;-76
2023/05/04 04:46:29;;;;;;;;;;;14.00;72.80;;;14.36;49.00;99086.91;4907832;28;118433;-80
2023/05/04 04:48:55;;;;;;;;;;;14.00;72.90;;;14.35;49.18;99096.41;4905070;28;124348;-77
2023/05/04 04:51:25;;;;;;;;;;;14.00;73.00;;;14.36;49.28;99095.22;4906807;28;124001;-79
2023/05/04 04:53:52;;;;;;;;;;;14.00;73.10;;;14.37;49.28;99088.53;4906177;28;119349;-81
2023/05/04 04:56:18;;;;;;;;;;;14.00;73.20;;;14.37;49.12;99088.53;4891812;28;117874;-78
2023/05/04 04:58:46;;;;;;;;;;;14.00;73.30;;;14.36;49.16;99086.91;4889528;28;124339;-78
2023/05/04 05:01:17;;;;;;;;;;;14.00;73.30;;;14.35;49.02;99085.28;4901700;28;124681;-75
2023/05/04 05:03:44;;;;;;;;;;;14.00;73.40;;;14.35;49.18;99088.06;4893934;28;121324;-77
2023/05/04 05:06:13;;;;;;;;;;;14.00;73.50;;;14.35;49.11;99090.84;4908167;28;119553;-80
2023/05/04 05:08:40;;;;;;;;;;;14.00;73.60;;;14.35;49.69;99088.06;4906386;28;124998;-78
2023/05/04 05:11:07;;;;;;;;;;;14.00;73.80;;;14.34;49.47;99075.28;4905077;28;124096;-78
2023/05/04 05:13:39;;;;;;;;;;;14.00;74.00;;;14.36;49.48;99081.34;4896066;28;119611;-78
2023/05/04 05:16:05;;;;;;;;;;;14.00;74.00;;;14.40;49.83;99076.75;4905690;28;118830;-76
2023/05/04 05:18:31;;;;;;;;;;;13.90;74.10;;;14.46;49.79;99074.63;4897788;28;124423;-77
2023/05/04 05:21:01;;;;;;;;;;;14.10;74.70;;;14.53;49.61;99073.00;4897764;28;124319;-75
2023/05/04 05:23:27;;;;;;;;;;;14.10;74.80;;;14.59;49.56;99070.84;4901320;28;119529;-75
2023/05/04 05:25:56;;;;;;;;;;;14.20;74.90;;;14.65;49.54;99071.47;4897810;28;118857;-76
2023/05/04 05:28:29;;;;;;;;;;;14.20;75.10;;;14.68;49.24;99066.06;4898838;28;124266;-88
2023/05/04 05:30:56;;;;;;;;;;;14.30;75.10;;;14.71;49.39;99059.81;4905304;28;123802;-76
2023/05/04 05:33:25;;;;;;;;;;;14.30;75.10;;;14.66;49.30;99075.88;4903252;28;119639;-76
2023/05/04 05:35:51;;;;;;;;;;;14.20;75.10;;;14.61;49.55;99070.50;4907205;28;118888;-76
2023/05/04 05:38:18;;;;;;;;;;;14.20;75.20;;;14.55;49.54;99073.47;4907286;28;124781;-77
2023/05/04 05:40:52;;;;;;;;;;;14.20;76.00;;;14.51;49.48;99072.47;4904922;28;124020;-75
2023/05/04 05:43:18;;;;;;;;;;;14.20;75.00;;;14.49;49.69;99077.53;4909730;28;119008;-76
2023/05/04 05:45:52;;;;;;;;;;;14.20;75.10;;;14.50;49.77;99075.56;4907673;28;118887;-76
2023/05/04 05:48:18;;;;;;;;;;;14.20;75.20;;;14.51;49.76;99078.03;4902745;28;124238;-74
2023/05/04 05:50:45;;;;;;;;;;;14.20;75.30;;;14.51;49.80;99074.44;4906832;28;122877;-75
2023/05/04 05:53:13;;;;;;;;;;;14.20;75.40;;;14.50;49.75;99079.16;4896761;28;121039;-75
2023/05/04 05:55:39;;;;;;;;;;;14.20;75.40;;;14.54;49.81;99077.41;4902326;28;119906;-76
2023/05/04 05:58:08;;;;;;;;;;;14.20;75.60;;;14.58;49.53;99080.31;4909142;28;123189;-78
2023/05/04 06:00:38;;;;;;;;;;;15.30;76.60;;;14.67;49.64;99077.50;4903616;28;123917;-75
2023/05/04 06:03:04;;;;;;;;;;;14.30;75.60;;;14.75;49.47;99079.47;4906321;28;120214;-75
2023/05/04 06:05:40;;;;;;;;;;;14.40;75.70;;;14.83;49.46;99069.41;4904125;28;118850;-75
2023/05/04 06:08:06;;;;;;;;;;;14.40;75.70;;;14.90;49.44;99075.28;4895745;28;124316;-77
2023/05/04 06:10:33;;;;;;;;;;;14.40;75.70;;;14.97;49.25;99072.81;4896001;28;125340;-78
2023/05/04 06:13:01;;;;;;;;;;;14.50;75.80;;;15.05;48.85;99071.94;4903396;28;119560;-78
2023/05/04 06:15:28;;;;;;;;;;;14.60;75.90;;;15.13;49.14;99065.53;4896108;28;118108;-77
2023/05/04 06:17:54;;;;;;;;;;;14.60;75.90;;;15.19;48.87;99071.72;4891624;28;123109;-78
2023/05/04 06:20:31;;;;;;;;;;;14.60;75.80;;;15.28;48.53;99072.47;4910243;28;124078;-77
2023/05/04 06:22:58;;;;;;;;;;;14.70;75.80;;;15.35;48.47;99067.19;4906644;28;120146;-78
2023/05/04 06:25:29;;;;;;;;;;;14.80;75.70;;;15.40;48.56;99069.78;4910922;28;116801;-79
2023/05/04 06:27:55;;;;;;;;;;;14.90;75.70;;;15.45;48.30;99061.22;4902944;28;123598;-75
2023/05/04 06:30:27;;;;;;;;;;;14.90;75.80;;;15.52;48.93;99059.84;4896256;28;124379;-76
2023/05/04 06:32:56;;;;;;;;;;;15.00;76.40;;;15.57;48.42;99068.00;4909475;28;119663;-76
2023/05/04 06:35:28;;;;;;;;;;;15.00;76.20;;;15.62;48.55;99060.25;4906694;28;118821;-79
2023/05/04 06:37:54;;;;;;;;;;;15.00;76.10;;;15.69;48.22;99059.78;4900698;28;124545;-74
2023/05/04 06:40:21;;;;;;;;;;;15.10;76.20;;;15.75;48.25;99057.59;4891472;28;123846;-76
2023/05/04 06:42:50;;;;;;;;;;;15.10;76.10;;;15.80;48.17;99058.19;4904225;28;120008;-75
2023/05/04 06:45:16;;;;;;;;;;;15.20;76.10;;;15.87;47.98;99063.19;4898493;28;119868;-76
2023/05/04 06:47:43;;;;;;;;;;;15.30;76.10;;;15.96;48.06;99060.34;4900072;28;123951;-78
2023/05/04 06:50:15;;;;;;;;;;;15.40;76.00;;;16.09;47.57;99067.59;4902221;28;126904;-78
2023/05/04 06:52:43;;;;;;;;;;;14.60;74.90;;;16.15;47.43;99066.22;4902083;28;119413;-80
2023/05/04 06:55:16;;;;;;;;;;;15.50;75.50;;;16.22;47.14;99060.91;4899072;28;119398;-77
2023/05/04 06:57:42;;;;;;;;;;;15.60;75.40;;;16.29;46.99;99060.34;4905768;28;124845;-79
2023/05/04 07:00:09;;;;;;;;;;;15.70;75.40;;;16.38;46.92;99063.03;4907162;28;124516;-78
2023/05/04 07:02:42;;;;;;;;;;;15.70;75.00;;;16.44;46.78;99067.22;4911227;28;119366;-77
2023/05/04 07:05:08;;;;;;;;;;;15.80;75.00;;;16.53;46.54;99062.38;4909840;28;118829;-80
2023/05/04 07:07:38;;;;;;;;;;;15.90;74.90;;;16.61;46.35;99055.09;4907546;28;124172;-79
2023/05/04 07:10:05;;;;;;;;;;;16.00;74.70;;;16.69;46.37;99060.56;4909561;28;124547;-77
2023/05/04 07:12:31;;;;;;;;;;;16.00;74.40;;;16.77;46.02;99054.06;4910793;28;118437;-80
2023/05/04 07:14:57;;;;;;;;;;;16.10;74.30;;;16.83;45.90;99059.44;4910984;28;117706;-80
2023/05/04 07:17:26;;;;;;;;;;;16.20;74.00;;;16.89;45.95;99052.44;4909907;28;124354;-78
2023/05/04 07:19:53;;;;;;;;;;;16.20;73.90;;;16.98;45.78;99053.16;4908756;28;123788;-76
2023/05/04 07:22:19;;;;;;;;;;;14.70;72.50;;;17.11;45.71;99057.56;4904085;28;120106;-79
2023/05/04 07:24:56;;;;;;;;;;;16.50;73.90;;;17.18;45.39;99052.22;4906976;28;118234;-77
2023/05/04 07:27:26;;;;;;;;;;;16.50;73.60;;;17.23;45.29;99049.19;4902375;28;124853;-78
2023/05/04 07:29:52;;;;;;;;;;;16.60;73.50;;;17.29;45.24;99052.53;4911465;28;123735;-80
2023/05/04 07:32:19;;;;;;;;;;;16.70;73.40;;;17.37;45.08;99050.78;4905795;28;120593;-78
2023/05/04 07:34:51;;;;;;;;;;;17.90;74.40;;;17.43;44.92;99049.38;4900890;28;119772;-77
2023/05/04 07:37:17;;;;;;;;;;;16.80;73.10;;;17.47;44.88;99047.53;4899665;28;124422;-79
2023/05/04 07:39:44;;;;;;;;;;;16.80;72.80;;;17.54;44.79;99046.91;4907755;28;124543;-78
2023/05/04 07:42:13;;;;;;;;;;;16.90;72.80;;;17.65;44.82;99048.88;4902348;28;119389;-78
2023/05/04 07:44:41;;;;;;;;;;;17.00;72.80;;;17.72;44.28;99053.03;4907955;28;118657;-78
2023/05/04 07:47:07;;;;;;;;;;;17.10;72.30;;;17.74;44.27;99056.31;4906575;28;124160;-86
2023/05/04 07:49:33;;;;;;;;;;;17.10;72.10;;;17.79;44.13;99053.28;4908317;28;123885;-80
2023/05/04 07:52:03;;;;;;;;;;;17.70;72.40;;;17.84;43.93;99045.47;4902949;28;118884;-76
2023/05/04 07:54:29;;;;;;;;;;;17.20;71.80;;;17.93;43.91;99041.72;4904220;28;118725;-81
2023/05/04 07:56:55;;;;;;;;;;;17.30;71.80;;;18.02;43.80;99040.38;4891220;28;124805;-76
2023/05/04 07:59:21;;;;;;;;;;;17.40;71.70;;;18.11;43.58;99048.63;4907201;28;124019;-76
2023/05/04 08:01:53;;;;;;;;;;;17.50;71.50;;;18.20;43.38;99046.47;4904788;28;119417;-79
2023/05/04 08:04:20;;;;;;;;;;;17.50;71.30;;;18.28;43.13;99041.88;4895049;28;118751;-78
2023/05/04 08:06:52;;;;;;;;;;;17.60;71.00;;;18.36;42.95;99031.72;4897405;28;124367;-77
2023/05/04 08:09:19;;;;;;;;;;;17.70;71.50;;;18.44;43.12;99034.31;4898999;28;124134;-78
2023/05/04 08:11:52;;;;;;;;;;;17.80;71.00;;;18.54;43.03;99033.81;4899478;28;119607;-78
2023/05/04 08:14:18;;;;;;;;;;;17.90;71.00;;;18.67;42.77;99036.50;4899020;28;118585;-77
2023/05/04 08:16:44;;;;;;;;;;;18.00;70.60;;;18.76;42.43;99023.19;4895269;28;124831;-77
2023/05/04 08:19:17;;;;;;;;;;;18.10;70.40;;;18.85;42.15;99009.81;4902360;28;123967;-77
2023/05/04 08:22:05;;;;;;;;;;;18.20;70.20;;;18.92;42.29;99021.19;4893857;28;121007;-83
2023/05/04 08:24:31;;;;;;;;;;;18.30;70.30;;;19.02;42.20;99007.78;4896409;28;120103;-78
2023/05/04 08:27:07;;;;;;;;;;;18.30;70.10;;;19.13;41.77;99011.69;4898789;28;123919;-79
2023/05/04 08:29:40;;;;;;;;;;;18.50;69.90;;;19.18;41.55;99005.75;4906476;28;124326;-79
2023/05/04 08:32:07;;;;;;;;;;;18.50;69.10;;;19.19;41.27;99004.59;4905589;28;119344;-77
2023/05/04 08:34:38;;;;;;;;;;;18.50;68.30;;;19.20;40.70;99003.41;4914372;28;119769;-81
2023/05/04 08:37:05;;;;;;;;;;;19.30;68.50;;;19.22;40.98;99009.47;4899772;28;123566;-82
2023/05/04 08:39:34;;;;;;;;;;;18.60;68.10;;;19.27;40.82;99006.41;4898893;28;124089;-77
2023/05/04 08:42:03;;;;;;;;;;;18.70;67.60;;;19.36;40.22;99006.19;4892838;28;119429;-77
2023/05/04 08:44:30;;;;;;;;;;;18.70;66.90;;;19.43;40.22;99003.53;4898118;28;118691;-77
2023/05/04 08:46:56;;;;;;;;;;;18.80;67.10;;;19.52;39.54;99008.94;4901130;28;124510;-78
2023/05/04 08:49:29;;;;;;;;;;;18.90;65.90;;;19.57;38.68;98994.63;4905912;28;124007;-77
2023/05/04 08:51:56;;;;;;;;;;;18.90;65.20;;;19.62;37.52;98997.16;4893652;28;119671;-77
2023/05/04 08:54:29;;;;;;;;;;;19.00;62.60;;;19.69;37.89;98990.91;4903800;28;119038;-77
2023/05/04 08:56:58;;;;;;;;;;;19.00;63.30;;;19.75;37.43;98979.03;4904363;28;124250;-76
2023/05/04 08:59:29;;;;;;;;;;;19.10;62.30;;;19.79;37.33;98973.47;4908592;28;123411;-80
2023/05/04 09:01:58;;;;;;;;;;;19.20;62.10;;;19.84;37.12;98982.41;4891673;28;119781;-76
2023/05/04 09:04:32;;;;;;;;;;;19.20;61.90;;;19.90;36.38;98987.72;4885158;28;118742;-80
2023/05/04 09:07:02;;;;;;;;;;;19.30;60.80;;;19.92;35.31;98979.75;4898671;28;124534;-76
2023/05/04 09:09:30;;;;;;;;;;;19.30;58.70;;;19.94;35.35;98968.97;4888883;28;124348;-77
2023/05/04 09:11:57;;;;;;;;;;;19.30;58.60;;;19.95;35.16;98965.78;4894130;28;120865;-78
2023/05/04 09:14:37;;;;;;;;;;;19.40;58.40;;;19.98;35.15;98970.66;4901420;28;119749;-78
2023/05/04 09:17:16;;;;;;;;;;;19.40;58.30;;;20.00;34.84;98971.09;4892223;28;124517;-76
2023/05/04 09:19:43;;;;;;;;;;;19.50;57.60;;;20.06;35.20;98980.03;4893437;28;124684;-76
2023/05/04 09:22:16;;;;;;;;;;;19.50;58.00;;;20.13;35.38;98965.34;4902635;28;120284;-78
2023/05/04 09:24:43;;;;;;;;;;;19.60;58.00;;;20.19;34.67;98967.44;4897559;28;119010;-77
2023/05/04 09:27:30;;;;;;;;;;;19.70;57.50;;;20.27;34.81;98962.78;4904020;28;124809;-77
2023/05/04 09:29:56;;;;;;;;;;;19.70;57.30;;;20.34;34.67;98968.53;4884370;28;123008;-77
2023/05/04 09:32:28;;;;;;;;;;;19.80;57.10;;;20.40;34.68;98960.59;4882811;28;119407;-77
2023/05/04 09:34:57;;;;;;;;;;;19.80;57.00;;;20.45;34.71;98957.50;4871294;28;118885;-77
2023/05/04 09:37:26;;;;;;;;;;;19.90;57.50;;;20.51;34.65;98953.16;4879998;28;124849;-77
2023/05/04 09:40:07;;;;;;;;;;;20.00;57.40;;;20.60;34.77;98950.94;4851318;28;123192;-77
2023/05/04 09:42:33;;;;;;;;;;;20.10;57.50;;;20.69;34.50;98942.28;4865769;28;118803;-80
2023/05/04 09:45:05;;;;;;;;;;;20.10;57.20;;;20.79;34.51;98957.66;4875649;28;118493;-81
2023/05/04 09:47:40;;;;;;;;;;;20.20;57.00;;;20.83;34.15;98945.28;4859584;28;124364;-78
2023/05/04 09:50:18;;;;;;;;;;;20.30;56.50;;;20.87;33.62;98934.09;4879362;28;124751;-76
2023/05/04 09:52:45;;;;;;;;;;;20.30;55.70;;;20.90;33.52;98939.78;4874436;28;119691;-77
2023/05/04 09:55:19;;;;;;;;;;;20.30;55.80;;;20.92;33.38;98930.97;4873877;28;119089;-77
2023/05/04 09:57:50;;;;;;;;;;;20.40;55.50;;;20.97;33.53;98936.28;4869317;28;124251;-79
2023/05/04 10:00:17;;;;;;;;;;;20.50;55.70;;;21.01;33.33;98936.31;4872356;28;123881;-78
2023/05/04 10:02:45;;;;;;;;;;;20.50;55.30;;;21.06;33.80;98927.56;4882030;28;120463;-78
2023/05/04 10:05:17;;;;;;;;;;;20.60;55.80;;;21.10;32.71;98934.84;4873552;28;119328;-77
2023/05/04 10:07:44;;;;;;;;;;;20.60;54.40;;;21.14;33.31;98940.50;4890859;28;124255;-77
2023/05/04 10:10:16;;;;;;;;;;;20.70;55.10;;;21.19;33.13;98926.94;4882762;28;123271;-78
2023/05/04 10:12:45;;;;;;;;;;;20.70;54.70;;;21.22;32.76;98927.38;4894616;28;119211;-74
2023/05/04 10:15:16;;;;;;;;;;;20.70;54.10;;;21.27;32.58;98924.25;4891375;28;117967;-75
2023/05/04 10:18:03;;;;;;;;;;;20.80;53.80;;;21.32;32.50;98923.91;4897979;28;124328;-75
2023/05/04 10:20:50;;;;;;;;;;;20.80;54.00;;;21.35;32.07;98917.53;4908956;28;124342;-76
2023/05/04 10:23:38;;;;;;;;;;;20.80;53.30;;;21.36;32.59;98916.34;4902581;28;119463;-75
2023/05/04 10:26:58;;;;;;;;;;;20.90;53.50;;;21.39;32.64;98924.03;4894151;28;118864;-77
2023/05/04 10:29:31;;;;;;;;;;;20.90;53.60;;;21.46;32.67;98921.28;4883366;28;124236;-79
2023/05/04 10:32:06;;;;;;;;;;;21.00;53.40;;;21.55;32.13;98915.41;4890694;28;124320;-80
2023/05/04 10:34:37;;;;;;;;;;;21.00;53.00;;;21.62;31.51;98904.22;4901495;28;119976;-77
2023/05/04 10:37:16;;;;;;;;;;;21.10;51.80;;;21.68;31.83;98899.91;4897310;28;118735;-78
2023/05/04 10:39:54;;;;;;;;;;;21.20;52.60;;;21.78;31.39;98906.81;4904452;28;116919;-80
2023/05/04 10:42:20;;;;;;;;;;;21.20;51.80;;;21.84;31.33;98894.00;4892385;28;123377;-78
2023/05/04 10:45:02;;;;;;;;;;;21.30;51.70;;;21.90;30.61;98880.44;4894827;28;120111;-77
2023/05/04 10:47:39;;;;;;;;;;;21.40;50.60;;;21.93;30.88;98880.47;4905787;28;119007;-79
2023/05/04 10:50:07;;;;;;;;;;;21.40;50.90;;;22.03;30.77;98881.75;4908890;28;124543;-78
2023/05/04 10:52:48;;;;;;;;;;;21.50;50.90;;;22.14;30.67;98873.41;4894427;28;124092;-80
2023/05/04 10:55:18;;;;;;;;;;;21.60;50.50;;;22.21;30.08;98874.31;4894965;28;119676;-77
2023/05/04 10:57:50;;;;;;;;;;;21.70;49.90;;;22.29;29.96;98866.72;4901863;28;118152;-80
2023/05/04 11:00:17;;;;;;;;;;;21.80;49.80;;;22.36;29.98;98863.97;4911860;28;124329;-77
2023/05/04 11:02:45;;;;;;;;;;;21.80;49.80;;;22.40;29.89;98870.44;4893293;28;123673;-79
2023/05/04 11:05:18;;;;;;;;;;;21.90;49.50;;;22.47;29.20;98853.59;4886258;28;118574;-78
2023/05/04 11:07:53;;;;;;;;;;;21.90;48.90;;;22.57;29.26;98863.34;4892959;28;118695;-79
2023/05/04 11:10:25;;;;;;;;;;;22.00;48.50;;;22.65;29.42;98859.38;4890921;28;124190;-75
2023/05/04 11:12:53;;;;;;;;;;;22.10;48.80;;;22.75;28.78;98852.16;4900836;28;123216;-81
2023/05/04 11:15:20;;;;;;;;;;;22.20;48.00;;;22.86;28.50;98852.22;4893637;28;119369;-78
2023/05/04 11:17:51;;;;;;;;;;;22.30;47.90;;;22.94;28.35;98849.09;4898187;28;118729;-80
2023/05/04 11:20:26;;;;;;;;;;;22.40;47.70;;;23.01;28.09;98841.88;4891554;28;124003;-79
2023/05/04 11:22:56;;;;;;;;;;;22.50;47.30;;;23.04;28.26;98835.47;4906053;28;124804;-78